createdAt,value
2023-01-05T00:00:59.065Z,1014.14
2023-01-05T00:01:59.072Z,1014.11
2023-01-05T00:02:59.063Z,1014.23
2023-01-05T00:03:59.079Z,1014.17
2023-01-05T00:04:59.023Z,1014.17
2023-01-05T00:05:59.010Z,1014.10
2023-01-05T00:06:58.987Z,1014.39
2023-01-05T00:07:58.956Z,1014.36
2023-01-05T00:08:58.959Z,1014.22
2023-01-05T00:09:58.927Z,1014.23
2023-01-05T00:10:58.926Z,1014.24
2023-01-05T00:11:58.972Z,1014.14
2023-01-05T00:12:58.876Z,1014.22
2023-01-05T00:13:58.917Z,1014.10
2023-01-05T00:14:58.893Z,1014.16
2023-01-05T00:15:58.879Z,1014.15
2023-01-05T00:16:58.906Z,1014.18
2023-01-05T00:17:58.875Z,1014.18
2023-01-05T00:18:58.794Z,1014.29
2023-01-05T00:19:58.828Z,1014.30
2023-01-05T00:20:58.800Z,1014.32
2023-01-05T00:21:58.791Z,1014.38
2023-01-05T00:22:58.790Z,1014.42
2023-01-05T00:23:58.771Z,1014.37
2023-01-05T00:24:58.761Z,1014.43
2023-01-05T00:25:58.747Z,1014.42
2023-01-05T00:26:58.708Z,1014.39
2023-01-05T00:27:58.739Z,1014.39
2023-01-05T00:28:58.723Z,1014.53
2023-01-05T00:29:58.680Z,1014.41
2023-01-05T00:30:58.667Z,1014.48
2023-01-05T00:31:58.741Z,1014.45
2023-01-05T00:32:58.642Z,1014.51
2023-01-05T00:33:58.640Z,1014.48
2023-01-05T00:34:58.844Z,1014.40
2023-01-05T00:35:58.612Z,1014.42
2023-01-05T00:36:58.591Z,1014.45
2023-01-05T00:37:58.584Z,1014.41
2023-01-05T00:38:58.583Z,1014.42
2023-01-05T00:39:58.558Z,1014.39
2023-01-05T00:40:58.512Z,1014.42
2023-01-05T00:41:58.538Z,1014.39
2023-01-05T00:42:58.507Z,1014.48
2023-01-05T00:43:58.512Z,1014.45
2023-01-05T00:44:59.452Z,1014.42
2023-01-05T00:45:58.539Z,1014.39
2023-01-05T00:46:58.430Z,1014.46
2023-01-05T00:47:58.459Z,1014.48
2023-01-05T00:48:58.421Z,1014.42
2023-01-05T00:49:58.433Z,1014.46
2023-01-05T00:50:58.402Z,1014.46
2023-01-05T00:51:58.382Z,1014.43
2023-01-05T00:52:58.368Z,1014.50
2023-01-05T00:53:58.408Z,1014.39
2023-01-05T00:54:58.349Z,1014.40
2023-01-05T00:55:58.360Z,1014.39
2023-01-05T00:56:58.357Z,1014.38
2023-01-05T00:57:58.347Z,1014.35
2023-01-05T00:58:58.297Z,1014.37
2023-01-05T00:59:58.270Z,1014.38
2023-01-05T01:00:58.291Z,1014.40
2023-01-05T01:01:58.420Z,1014.41
2023-01-05T01:02:58.309Z,1014.49
2023-01-05T01:03:58.226Z,1014.42
2023-01-05T01:04:58.205Z,1014.42
2023-01-05T01:05:58.214Z,1014.45
2023-01-05T01:06:58.196Z,1014.50
2023-01-05T01:07:58.205Z,1014.58
2023-01-05T01:08:58.175Z,1014.52
2023-01-05T01:09:58.232Z,1014.52
2023-01-05T01:10:58.134Z,1014.52
2023-01-05T01:11:58.144Z,1014.56
2023-01-05T01:12:58.357Z,1014.62
2023-01-05T01:13:58.148Z,1014.62
2023-01-05T01:14:58.112Z,1014.64
2023-01-05T01:15:58.065Z,1014.56
2023-01-05T01:16:58.148Z,1014.55
2023-01-05T01:17:58.109Z,1014.62
2023-01-05T01:19:02.951Z,1014.53
2023-01-05T01:21:07.976Z,1014.60
2023-01-05T01:22:07.970Z,1014.48
2023-01-05T01:23:07.924Z,1014.58
2023-01-05T01:24:07.951Z,1014.62
2023-01-05T01:25:07.920Z,1014.54
2023-01-05T01:26:07.990Z,1014.56
2023-01-05T01:27:07.864Z,1014.54
2023-01-05T01:28:07.917Z,1014.56
2023-01-05T01:29:07.832Z,1014.60
2023-01-05T01:30:07.832Z,1014.60
2023-01-05T01:31:07.847Z,1014.60
2023-01-05T01:32:07.877Z,1014.63
2023-01-05T01:33:07.859Z,1014.62
2023-01-05T01:34:07.796Z,1014.59
2023-01-05T01:35:07.839Z,1014.68
2023-01-05T01:36:07.795Z,1014.67
2023-01-05T01:37:07.757Z,1014.74
2023-01-05T01:38:07.740Z,1014.63
2023-01-05T01:39:07.750Z,1014.68
2023-01-05T01:40:07.710Z,1014.61
2023-01-05T01:41:07.711Z,1014.65
2023-01-05T01:42:07.689Z,1014.68
2023-01-05T01:43:07.668Z,1014.67
2023-01-05T01:44:07.662Z,1014.64
2023-01-05T01:45:07.651Z,1014.70
2023-01-05T01:46:07.684Z,1014.67
2023-01-05T01:47:07.642Z,1014.67
2023-01-05T01:48:07.666Z,1014.71
2023-01-05T01:49:07.599Z,1014.65
2023-01-05T01:50:07.600Z,1014.65
2023-01-05T01:51:08.297Z,1014.69
2023-01-05T01:52:07.578Z,1014.66
2023-01-05T01:53:07.594Z,1014.71
2023-01-05T01:54:07.554Z,1014.79
2023-01-05T01:55:07.549Z,1014.82
2023-01-05T01:56:07.503Z,1014.80
2023-01-05T01:57:07.484Z,1014.94
2023-01-05T01:58:07.535Z,1014.91
2023-01-05T01:59:07.471Z,1014.83
2023-01-05T02:00:07.465Z,1014.78
2023-01-05T02:01:07.641Z,1014.76
2023-01-05T02:02:07.505Z,1014.76
2023-01-05T02:03:07.437Z,1014.75
2023-01-05T02:04:07.423Z,1014.77
2023-01-05T02:05:07.378Z,1014.76
2023-01-05T02:06:07.397Z,1014.82
2023-01-05T02:07:07.378Z,1014.74
2023-01-05T02:08:07.368Z,1014.72
2023-01-05T02:09:07.318Z,1014.74
2023-01-05T02:10:07.380Z,1014.79
2023-01-05T02:11:07.322Z,1014.88
2023-01-05T02:12:07.297Z,1014.79
2023-01-05T02:13:07.291Z,1014.84
2023-01-05T02:14:07.293Z,1014.80
2023-01-05T02:15:07.288Z,1014.85
2023-01-05T02:16:07.244Z,1014.82
2023-01-05T02:17:07.310Z,1014.82
2023-01-05T02:18:07.265Z,1014.85
2023-01-05T02:19:07.246Z,1014.87
2023-01-05T02:20:07.194Z,1014.86
2023-01-05T02:21:10.364Z,1014.87
2023-01-05T02:22:08.165Z,1014.90
2023-01-05T02:23:07.176Z,1014.84
2023-01-05T02:24:07.168Z,1014.86
2023-01-05T02:25:07.157Z,1014.78
2023-01-05T02:26:07.129Z,1014.88
2023-01-05T02:27:07.128Z,1014.87
2023-01-05T02:28:07.103Z,1014.88
2023-01-05T02:29:07.091Z,1014.84
2023-01-05T02:30:07.069Z,1014.83
2023-01-05T02:31:07.114Z,1014.89
2023-01-05T02:32:07.054Z,1014.86
2023-01-05T02:33:07.084Z,1014.88
2023-01-05T02:34:07.037Z,1014.86
2023-01-05T02:35:06.997Z,1014.95
2023-01-05T02:36:06.996Z,1014.92
2023-01-05T02:37:06.999Z,1014.96
2023-01-05T02:38:07.028Z,1014.97
2023-01-05T02:39:06.963Z,1015.01
2023-01-05T02:40:06.952Z,1015.01
2023-01-05T02:41:06.948Z,1015.00
2023-01-05T02:42:06.975Z,1014.99
2023-01-05T02:43:06.886Z,1015.06
2023-01-05T02:44:06.881Z,1015.00
2023-01-05T02:45:06.887Z,1015.01
2023-01-05T02:46:06.945Z,1014.99
2023-01-05T02:47:06.877Z,1015.02
2023-01-05T02:48:06.842Z,1015.00
2023-01-05T02:49:06.827Z,1015.02
2023-01-05T02:50:06.821Z,1015.05
2023-01-05T02:51:06.811Z,1015.05
2023-01-05T02:52:06.796Z,1015.04
2023-01-05T02:53:06.837Z,1015.00
2023-01-05T02:54:06.772Z,1015.00
2023-01-05T02:55:06.741Z,1015.02
2023-01-05T02:56:06.759Z,1015.02
2023-01-05T02:57:06.726Z,1015.04
2023-01-05T02:58:06.772Z,1015.10
2023-01-05T02:59:06.706Z,1014.99
2023-01-05T03:00:06.822Z,1015.03
2023-01-05T03:01:06.756Z,1014.97
2023-01-05T03:02:06.926Z,1014.97
2023-01-05T03:03:06.772Z,1015.03
2023-01-05T03:04:06.680Z,1015.01
2023-01-05T03:05:06.639Z,1015.00
2023-01-05T03:06:06.598Z,1015.02
2023-01-05T03:07:06.587Z,1014.98
2023-01-05T03:08:06.652Z,1014.97
2023-01-05T03:09:06.603Z,1014.99
2023-01-05T03:10:06.568Z,1014.96
2023-01-05T03:11:06.555Z,1014.96
2023-01-05T03:12:06.518Z,1015.00
2023-01-05T03:13:06.544Z,1015.00
2023-01-05T03:14:06.565Z,1014.97
2023-01-05T03:15:06.524Z,1015.03
2023-01-05T03:16:06.508Z,1015.00
2023-01-05T03:17:06.490Z,1014.98
2023-01-05T03:18:06.517Z,1015.07
2023-01-05T03:19:06.437Z,1015.02
2023-01-05T03:20:06.459Z,1015.00
2023-01-05T03:21:06.424Z,1014.98
2023-01-05T03:22:06.439Z,1014.98
2023-01-05T03:23:06.411Z,1014.99
2023-01-05T03:24:06.376Z,1015.03
2023-01-05T03:25:06.406Z,1015.07
2023-01-05T03:26:06.362Z,1015.11
2023-01-05T03:27:06.350Z,1015.08
2023-01-05T03:28:06.357Z,1015.07
2023-01-05T03:29:06.328Z,1015.12
2023-01-05T03:30:06.301Z,1015.01
2023-01-05T03:31:06.476Z,1015.03
2023-01-05T03:32:06.328Z,1015.02
2023-01-05T03:33:06.258Z,1015.01
2023-01-05T03:34:06.246Z,1014.97
2023-01-05T03:35:06.263Z,1015.03
2023-01-05T03:36:06.230Z,1015.02
2023-01-05T03:37:06.225Z,1015.09
2023-01-05T03:38:06.205Z,1014.99
2023-01-05T03:39:06.194Z,1015.09
2023-01-05T03:40:06.221Z,1015.11
2023-01-05T03:41:06.153Z,1015.08
2023-01-05T03:42:06.185Z,1015.08
2023-01-05T03:43:06.144Z,1015.06
2023-01-05T03:44:06.154Z,1015.12
2023-01-05T03:45:06.137Z,1015.06
2023-01-05T03:46:06.168Z,1015.15
2023-01-05T03:47:06.094Z,1015.08
2023-01-05T03:48:06.086Z,1015.21
2023-01-05T03:49:06.061Z,1015.14
2023-01-05T03:50:06.073Z,1015.15
2023-01-05T03:51:06.022Z,1015.11
2023-01-05T03:52:06.036Z,1015.15
2023-01-05T03:53:06.008Z,1015.11
2023-01-05T03:54:06.015Z,1015.07
2023-01-05T03:55:06.047Z,1015.08
2023-01-05T03:56:06.019Z,1015.16
2023-01-05T03:57:05.943Z,1015.14
2023-01-05T03:58:05.961Z,1015.27
2023-01-05T03:59:05.956Z,1015.22
2023-01-05T04:00:05.922Z,1015.14
2023-01-05T04:01:06.000Z,1015.14
2023-01-05T04:02:06.027Z,1015.21
2023-01-05T04:03:06.126Z,1015.21
2023-01-05T04:04:05.880Z,1015.28
2023-01-05T04:05:05.882Z,1015.22
2023-01-05T04:06:05.872Z,1015.24
2023-01-05T04:07:05.826Z,1015.20
2023-01-05T04:08:05.859Z,1015.30
2023-01-05T04:09:05.783Z,1015.20
2023-01-05T04:10:05.821Z,1015.31
2023-01-05T04:11:05.812Z,1015.21
2023-01-05T04:12:05.794Z,1015.25
2023-01-05T04:13:05.744Z,1015.25
2023-01-05T04:14:05.770Z,1015.28
2023-01-05T04:15:05.730Z,1015.31
2023-01-05T04:16:05.859Z,1015.23
2023-01-05T04:17:05.679Z,1015.29
2023-01-05T04:18:05.718Z,1015.28
2023-01-05T04:19:05.664Z,1015.30
2023-01-05T04:20:05.672Z,1015.28
2023-01-05T04:21:13.436Z,1015.34
2023-01-05T04:22:05.654Z,1015.33
2023-01-05T04:23:05.636Z,1015.35
2023-01-05T04:24:05.630Z,1015.23
2023-01-05T04:25:05.610Z,1015.37
2023-01-05T04:26:05.603Z,1015.28
2023-01-05T04:27:05.592Z,1015.32
2023-01-05T04:28:05.663Z,1015.32
2023-01-05T04:29:05.577Z,1015.32
2023-01-05T04:30:05.536Z,1015.27
2023-01-05T04:31:05.611Z,1015.29
2023-01-05T04:32:05.527Z,1015.29
2023-01-05T04:33:05.506Z,1015.29
2023-01-05T04:34:05.487Z,1015.20
2023-01-05T04:35:10.963Z,1015.26
2023-01-05T04:36:06.492Z,1015.27
2023-01-05T04:37:05.452Z,1015.27
2023-01-05T04:38:05.472Z,1015.21
2023-01-05T04:39:05.405Z,1015.22
2023-01-05T04:40:05.414Z,1015.33
2023-01-05T04:41:05.413Z,1015.32
2023-01-05T04:42:05.428Z,1015.29
2023-01-05T04:43:05.356Z,1015.36
2023-01-05T04:44:05.367Z,1015.28
2023-01-05T04:45:05.328Z,1015.33
2023-01-05T04:46:05.401Z,1015.32
2023-01-05T04:47:05.302Z,1015.32
2023-01-05T04:48:05.358Z,1015.38
2023-01-05T04:49:05.301Z,1015.36
2023-01-05T04:50:05.272Z,1015.36
2023-01-05T04:51:05.283Z,1015.36
2023-01-05T04:52:05.276Z,1015.39
2023-01-05T04:53:05.330Z,1015.34
2023-01-05T04:54:05.272Z,1015.37
2023-01-05T04:55:05.215Z,1015.41
2023-01-05T04:56:05.215Z,1015.46
2023-01-05T04:57:05.220Z,1015.34
2023-01-05T04:58:10.075Z,1015.38
2023-01-05T04:59:06.189Z,1015.39
2023-01-05T05:00:05.187Z,1015.45
2023-01-05T05:01:05.224Z,1015.42
2023-01-05T05:02:05.274Z,1015.41
2023-01-05T05:03:05.326Z,1015.40
2023-01-05T05:04:05.211Z,1015.47
2023-01-05T05:05:05.189Z,1015.50
2023-01-05T05:06:05.082Z,1015.44
2023-01-05T05:07:05.124Z,1015.44
2023-01-05T05:08:05.084Z,1015.43
2023-01-05T05:09:05.029Z,1015.42
2023-01-05T05:10:05.036Z,1015.44
2023-01-05T05:11:05.040Z,1015.48
2023-01-05T05:12:04.982Z,1015.47
2023-01-05T05:13:05.010Z,1015.51
2023-01-05T05:14:04.958Z,1015.44
2023-01-05T05:15:04.972Z,1015.47
2023-01-05T05:16:05.012Z,1015.51
2023-01-05T05:17:04.958Z,1015.51
2023-01-05T05:18:09.255Z,1015.54
2023-01-05T05:19:04.900Z,1015.54
2023-01-05T05:20:04.919Z,1015.51
2023-01-05T05:21:04.894Z,1015.48
2023-01-05T05:22:05.870Z,1015.43
2023-01-05T05:23:04.887Z,1015.49
2023-01-05T05:24:04.859Z,1015.48
2023-01-05T05:25:04.842Z,1015.41
2023-01-05T05:26:04.801Z,1015.55
2023-01-05T05:27:04.810Z,1015.47
2023-01-05T05:28:04.788Z,1015.48
2023-01-05T05:29:04.811Z,1015.54
2023-01-05T05:30:04.780Z,1015.50
2023-01-05T05:31:04.816Z,1015.53
2023-01-05T05:32:04.747Z,1015.51
2023-01-05T05:33:04.755Z,1015.50
2023-01-05T05:34:04.711Z,1015.63
2023-01-05T05:35:04.776Z,1015.59
2023-01-05T05:36:04.681Z,1015.57
2023-01-05T05:37:04.726Z,1015.58
2023-01-05T05:38:04.743Z,1015.63
2023-01-05T05:39:04.698Z,1015.58
2023-01-05T05:40:04.648Z,1015.55
2023-01-05T05:41:04.639Z,1015.54
2023-01-05T05:42:04.598Z,1015.63
2023-01-05T05:43:04.652Z,1015.63
2023-01-05T05:44:04.587Z,1015.60
2023-01-05T05:45:04.576Z,1015.64
2023-01-05T05:46:04.558Z,1015.60
2023-01-05T05:47:04.615Z,1015.59
2023-01-05T05:48:04.559Z,1015.63
2023-01-05T05:49:04.518Z,1015.68
2023-01-05T05:50:04.488Z,1015.64
2023-01-05T05:51:04.522Z,1015.67
2023-01-05T05:52:04.532Z,1015.76
2023-01-05T05:53:04.462Z,1015.70
2023-01-05T05:54:04.507Z,1015.85
2023-01-05T05:55:04.471Z,1015.74
2023-01-05T05:56:04.435Z,1015.84
2023-01-05T05:57:04.409Z,1015.74
2023-01-05T05:58:04.442Z,1015.87
2023-01-05T05:59:04.419Z,1015.85
2023-01-05T06:00:04.383Z,1015.90
2023-01-05T06:01:04.516Z,1015.90
2023-01-05T06:02:04.585Z,1015.87
2023-01-05T06:03:04.523Z,1015.92
2023-01-05T06:04:05.943Z,1015.92
2023-01-05T06:05:04.352Z,1015.93
2023-01-05T06:06:04.347Z,1015.93
2023-01-05T06:07:04.332Z,1015.95
2023-01-05T06:08:04.343Z,1015.97
2023-01-05T06:09:04.294Z,1016.04
2023-01-05T06:10:04.290Z,1016.05
2023-01-05T06:11:04.272Z,1016.03
2023-01-05T06:12:04.258Z,1016.05
2023-01-05T06:13:04.240Z,1016.11
2023-01-05T06:14:04.229Z,1016.13
2023-01-05T06:15:04.189Z,1016.09
2023-01-05T06:16:04.256Z,1016.08
2023-01-05T06:17:04.171Z,1016.17
2023-01-05T06:18:04.161Z,1016.14
2023-01-05T06:19:04.162Z,1016.11
2023-01-05T06:20:04.112Z,1016.06
2023-01-05T06:21:04.140Z,1016.10
2023-01-05T06:22:04.132Z,1016.16
2023-01-05T06:23:04.083Z,1016.14
2023-01-05T06:24:04.100Z,1016.10
2023-01-05T06:25:04.053Z,1016.10
2023-01-05T06:26:04.040Z,1016.14
2023-01-05T06:27:04.067Z,1016.12
2023-01-05T06:28:04.086Z,1016.17
2023-01-05T06:29:04.004Z,1016.13
2023-01-05T06:30:03.997Z,1016.13
2023-01-05T06:31:04.074Z,1016.15
2023-01-05T06:32:04.264Z,1016.14
2023-01-05T06:33:04.005Z,1016.15
2023-01-05T06:34:04.004Z,1016.20
2023-01-05T06:35:03.934Z,1016.17
2023-01-05T06:36:03.899Z,1016.24
2023-01-05T06:37:03.983Z,1016.30
2023-01-05T06:38:03.907Z,1016.26
2023-01-05T06:39:03.877Z,1016.28
2023-01-05T06:40:03.869Z,1016.32
2023-01-05T06:41:03.907Z,1016.34
2023-01-05T06:42:03.944Z,1016.32
2023-01-05T06:43:03.877Z,1016.28
2023-01-05T06:44:03.830Z,1016.34
2023-01-05T06:45:03.817Z,1016.32
2023-01-05T06:46:03.888Z,1016.36
2023-01-05T06:47:03.789Z,1016.33
2023-01-05T06:48:03.776Z,1016.41
2023-01-05T06:49:03.754Z,1016.44
2023-01-05T06:50:03.776Z,1016.46
2023-01-05T06:51:03.789Z,1016.43
2023-01-05T06:52:03.695Z,1016.43
2023-01-05T06:53:03.751Z,1016.42
2023-01-05T06:54:03.670Z,1016.43
2023-01-05T06:55:03.668Z,1016.38
2023-01-05T06:56:03.661Z,1016.43
2023-01-05T06:57:03.673Z,1016.38
2023-01-05T06:58:03.671Z,1016.43
2023-01-05T06:59:03.625Z,1016.39
2023-01-05T07:00:03.639Z,1016.45
2023-01-05T07:01:03.806Z,1016.46
2023-01-05T07:02:03.698Z,1016.41
2023-01-05T07:03:03.577Z,1016.41
2023-01-05T07:04:03.643Z,1016.41
2023-01-05T07:05:03.610Z,1016.40
2023-01-05T07:06:03.533Z,1016.44
2023-01-05T07:07:03.549Z,1016.42
2023-01-05T07:08:03.584Z,1016.44
2023-01-05T07:09:03.496Z,1016.45
2023-01-05T07:10:03.528Z,1016.37
2023-01-05T07:11:03.484Z,1016.36
2023-01-05T07:12:03.469Z,1016.48
2023-01-05T07:13:03.480Z,1016.44
2023-01-05T07:14:03.447Z,1016.38
2023-01-05T07:15:03.425Z,1016.45
2023-01-05T07:16:03.445Z,1016.44
2023-01-05T07:17:03.411Z,1016.46
2023-01-05T07:18:03.425Z,1016.45
2023-01-05T07:19:03.405Z,1016.51
2023-01-05T07:21:01.156Z,1016.56
2023-01-05T07:22:01.368Z,1016.55
2023-01-05T07:23:01.139Z,1016.64
2023-01-05T07:24:01.136Z,1016.55
2023-01-05T07:25:01.071Z,1016.55
2023-01-05T07:26:01.074Z,1016.57
2023-01-05T07:27:07.598Z,1016.62
2023-01-05T07:28:02.061Z,1016.63
2023-01-05T07:29:01.049Z,1016.57
2023-01-05T07:30:01.019Z,1016.54
2023-01-05T07:31:01.027Z,1016.68
2023-01-05T07:32:01.078Z,1016.70
2023-01-05T07:33:01.016Z,1016.67
2023-01-05T07:34:00.966Z,1016.68
2023-01-05T07:35:00.943Z,1016.68
2023-01-05T07:36:01.007Z,1016.71
2023-01-05T07:37:00.964Z,1016.73
2023-01-05T07:38:00.970Z,1016.68
2023-01-05T07:39:00.890Z,1016.61
2023-01-05T07:40:00.895Z,1016.68
2023-01-05T07:41:00.876Z,1016.65
2023-01-05T07:42:00.915Z,1016.61
2023-01-05T07:43:00.873Z,1016.69
2023-01-05T07:44:00.862Z,1016.63
2023-01-05T07:45:00.829Z,1016.72
2023-01-05T07:46:01.110Z,1016.68
2023-01-05T07:47:00.809Z,1016.71
2023-01-05T07:48:00.822Z,1016.75
2023-01-05T07:49:00.783Z,1016.79
2023-01-05T07:50:00.809Z,1016.82
2023-01-05T07:51:00.770Z,1016.84
2023-01-05T07:52:00.743Z,1016.79
2023-01-05T07:53:00.749Z,1016.83
2023-01-05T07:54:00.710Z,1016.79
2023-01-05T07:55:00.713Z,1016.80
2023-01-05T07:56:00.733Z,1016.82
2023-01-05T07:57:00.693Z,1016.81
2023-01-05T07:58:00.674Z,1016.84
2023-01-05T07:59:00.651Z,1016.89
2023-01-05T08:00:00.638Z,1016.88
2023-01-05T08:01:00.649Z,1016.88
2023-01-05T08:02:00.716Z,1016.89
2023-01-05T08:03:00.603Z,1016.89
2023-01-05T08:04:00.647Z,1016.92
2023-01-05T08:05:00.616Z,1016.93
2023-01-05T08:06:00.560Z,1016.95
2023-01-05T08:07:00.571Z,1016.93
2023-01-05T08:08:00.537Z,1017.03
2023-01-05T08:09:00.521Z,1017.02
2023-01-05T08:10:00.509Z,1017.11
2023-01-05T08:11:00.520Z,1017.10
2023-01-05T08:12:00.496Z,1017.13
2023-01-05T08:13:00.576Z,1017.11
2023-01-05T08:14:00.502Z,1017.04
2023-01-05T08:15:00.467Z,1017.16
2023-01-05T08:16:00.433Z,1017.14
2023-01-05T08:17:00.491Z,1017.18
2023-01-05T08:18:00.419Z,1017.20
2023-01-05T08:19:00.410Z,1017.17
2023-01-05T08:20:00.351Z,1017.12
2023-01-05T08:21:00.391Z,1017.18
2023-01-05T08:22:00.323Z,1017.26
2023-01-05T08:23:00.349Z,1017.23
2023-01-05T08:24:00.374Z,1017.12
2023-01-05T08:25:00.301Z,1017.20
2023-01-05T08:26:00.305Z,1017.19
2023-01-05T08:27:00.363Z,1017.05
2023-01-05T08:28:00.267Z,1017.14
2023-01-05T08:29:00.262Z,1017.17
2023-01-05T08:30:00.224Z,1017.21
2023-01-05T08:31:00.258Z,1017.27
2023-01-05T08:32:00.264Z,1017.28
2023-01-05T08:33:00.237Z,1017.36
2023-01-05T08:34:00.523Z,1017.32
2023-01-05T08:35:00.209Z,1017.27
2023-01-05T08:36:00.158Z,1017.28
2023-01-05T08:37:00.140Z,1017.34
2023-01-05T08:38:00.165Z,1017.29
2023-01-05T08:39:00.119Z,1017.29
2023-01-05T08:40:00.145Z,1017.27
2023-01-05T08:41:00.099Z,1017.28
2023-01-05T08:42:02.785Z,1017.30
2023-01-05T08:43:00.127Z,1017.28
2023-01-05T08:44:00.144Z,1017.26
2023-01-05T08:45:00.102Z,1017.30
2023-01-05T08:46:00.065Z,1017.34
2023-01-05T08:47:00.035Z,1017.31
2023-01-05T08:48:00.023Z,1017.41
2023-01-05T08:49:00.113Z,1017.32
2023-01-05T08:49:59.988Z,1017.41
2023-01-05T08:50:59.995Z,1017.37
2023-01-05T08:51:59.966Z,1017.39
2023-01-05T08:52:59.963Z,1017.35
2023-01-05T08:53:59.966Z,1017.35
2023-01-05T08:54:59.934Z,1017.37
2023-01-05T08:55:59.935Z,1017.33
2023-01-05T08:56:59.910Z,1017.39
2023-01-05T08:57:59.904Z,1017.36
2023-01-05T08:59:00.062Z,1017.44
2023-01-05T08:59:59.876Z,1017.42
2023-01-05T09:00:59.966Z,1017.47
2023-01-05T09:02:00.064Z,1017.48
2023-01-05T09:02:59.965Z,1017.52
2023-01-05T09:03:59.829Z,1017.56
2023-01-05T09:04:59.794Z,1017.56
2023-01-05T09:05:59.781Z,1017.62
2023-01-05T09:06:59.766Z,1017.58
2023-01-05T09:07:59.761Z,1017.55
2023-01-05T09:08:59.778Z,1017.59
2023-01-05T09:09:59.725Z,1017.50
2023-01-05T09:10:59.731Z,1017.53
2023-01-05T09:11:59.716Z,1017.50
2023-01-05T09:12:59.761Z,1017.50
2023-01-05T09:13:59.688Z,1017.53
2023-01-05T09:14:59.701Z,1017.53
2023-01-05T09:15:59.623Z,1017.63
2023-01-05T09:17:08.127Z,1017.62
2023-01-05T09:18:00.676Z,1017.61
2023-01-05T09:18:59.667Z,1017.71
2023-01-05T09:19:59.584Z,1017.65
2023-01-05T09:20:59.585Z,1017.66
2023-01-05T09:21:59.547Z,1017.71
2023-01-05T09:22:59.580Z,1017.75
2023-01-05T09:23:59.568Z,1017.72
2023-01-05T09:24:59.554Z,1017.79
2023-01-05T09:25:59.494Z,1017.77
2023-01-05T09:26:59.543Z,1017.76
2023-01-05T09:27:59.469Z,1017.77
2023-01-05T09:28:59.485Z,1017.73
2023-01-05T09:29:59.471Z,1017.81
2023-01-05T09:30:59.490Z,1017.78
2023-01-05T09:31:59.430Z,1017.81
2023-01-05T09:32:59.445Z,1017.82
2023-01-05T09:33:59.410Z,1017.83
2023-01-05T09:34:59.418Z,1017.76
2023-01-05T09:35:59.368Z,1017.83
2023-01-05T09:36:59.378Z,1017.88
2023-01-05T09:37:59.370Z,1017.87
2023-01-05T09:38:59.400Z,1017.85
2023-01-05T09:39:59.331Z,1017.91
2023-01-05T09:40:59.330Z,1017.91
2023-01-05T09:41:59.314Z,1017.92
2023-01-05T09:42:59.314Z,1017.92
2023-01-05T09:43:59.349Z,1017.93
2023-01-05T09:44:59.424Z,1017.98
2023-01-05T09:45:59.282Z,1017.94
2023-01-05T09:46:59.230Z,1017.95
2023-01-05T09:47:59.212Z,1017.91
2023-01-05T09:48:59.239Z,1018.02
2023-01-05T09:49:59.200Z,1017.96
2023-01-05T09:50:59.206Z,1018.05
2023-01-05T09:51:59.151Z,1018.08
2023-01-05T09:52:59.150Z,1018.07
2023-01-05T09:53:59.142Z,1018.15
2023-01-05T09:54:59.164Z,1018.14
2023-01-05T09:55:59.111Z,1018.17
2023-01-05T10:17:39.041Z,1018.33
2023-01-05T10:18:03.028Z,1018.32
2023-01-05T10:19:01.867Z,1018.25
2023-01-05T10:20:01.895Z,1018.25
2023-01-05T10:21:01.865Z,1018.27
2023-01-05T10:22:01.829Z,1018.24
2023-01-05T10:23:01.828Z,1018.30
2023-01-05T10:24:01.820Z,1018.31
2023-01-05T10:25:01.809Z,1018.33
2023-01-05T10:26:01.794Z,1018.30
2023-01-05T10:28:02.832Z,1018.36
2023-01-05T10:29:01.718Z,1018.32
2023-01-05T10:30:01.741Z,1018.32
2023-01-05T10:31:01.772Z,1018.31
2023-01-05T10:32:01.709Z,1018.35
2023-01-05T10:34:05.928Z,1018.35
2023-01-05T10:35:01.695Z,1018.38
2023-01-05T10:36:05.108Z,1018.33
2023-01-05T10:37:10.356Z,1018.42
2023-01-05T10:38:02.628Z,1018.43
2023-01-05T10:39:01.613Z,1018.41
2023-01-05T10:40:01.668Z,1018.38
2023-01-05T10:41:01.593Z,1018.41
2023-01-05T10:42:01.575Z,1018.45
2023-01-05T10:43:01.546Z,1018.43
2023-01-05T10:44:01.560Z,1018.40
2023-01-05T10:45:01.526Z,1018.48
2023-01-05T10:46:31.301Z,1018.46
2023-01-05T10:47:02.649Z,1018.51
2023-01-05T10:48:01.514Z,1018.46
2023-01-05T10:49:01.474Z,1018.53
2023-01-05T10:50:01.546Z,1018.51
2023-01-05T10:51:01.499Z,1018.53
2023-01-05T10:52:01.463Z,1018.52
2023-01-05T10:53:01.460Z,1018.53
2023-01-05T10:54:01.421Z,1018.50
2023-01-05T10:55:01.464Z,1018.48
2023-01-05T10:56:01.417Z,1018.49
2023-01-05T10:57:01.525Z,1018.53
2023-01-05T10:58:01.350Z,1018.45
2023-01-05T10:59:01.353Z,1018.47
2023-01-05T11:00:01.462Z,1018.49
2023-01-05T11:01:01.410Z,1018.52
2023-01-05T11:02:01.559Z,1018.48
2023-01-05T11:03:01.339Z,1018.46
2023-01-05T11:05:02.332Z,1018.48
2023-01-05T11:06:01.268Z,1018.45
2023-01-05T11:07:01.248Z,1018.48
2023-01-05T11:08:01.258Z,1018.47
2023-01-05T11:09:01.241Z,1018.54
2023-01-05T11:10:01.227Z,1018.49
2023-01-05T11:11:01.287Z,1018.51
2023-01-05T11:12:01.264Z,1018.47
2023-01-05T11:13:01.201Z,1018.58
2023-01-05T11:14:01.167Z,1018.55
2023-01-05T11:15:01.183Z,1018.47
2023-01-05T11:16:01.295Z,1018.54
2023-01-05T11:17:01.148Z,1018.46
2023-01-05T11:18:01.128Z,1018.52
2023-01-05T11:19:01.150Z,1018.49
2023-01-05T11:20:01.072Z,1018.54
2023-01-05T11:21:01.077Z,1018.53
2023-01-05T11:22:02.288Z,1018.53
2023-01-05T11:23:01.048Z,1018.58
2023-01-05T11:24:01.055Z,1018.52
2023-01-05T11:25:01.047Z,1018.52
2023-01-05T11:26:01.028Z,1018.54
2023-01-05T11:27:01.026Z,1018.49
2023-01-05T11:28:05.226Z,1018.55
2023-01-05T11:29:00.989Z,1018.57
2023-01-05T11:30:00.943Z,1018.58
2023-01-05T11:31:01.027Z,1018.50
2023-01-05T11:32:01.041Z,1018.49
2023-01-05T11:33:00.917Z,1018.56
2023-01-05T11:34:00.890Z,1018.53
2023-01-05T11:35:00.953Z,1018.56
2023-01-05T11:36:00.888Z,1018.58
2023-01-05T11:37:05.832Z,1018.58
2023-01-05T11:38:01.868Z,1018.54
2023-01-05T11:39:00.848Z,1018.64
2023-01-05T11:40:00.844Z,1018.59
2023-01-05T11:41:00.867Z,1018.61
2023-01-05T11:42:00.815Z,1018.65
2023-01-05T11:43:00.808Z,1018.68
2023-01-05T11:44:00.825Z,1018.65
2023-01-05T11:45:00.776Z,1018.67
2023-01-05T11:46:00.848Z,1018.62
2023-01-05T11:47:00.726Z,1018.61
2023-01-05T11:48:00.745Z,1018.63
2023-01-05T11:49:00.734Z,1018.58
2023-01-05T11:50:05.352Z,1018.62
2023-01-05T11:51:01.700Z,1018.58
2023-01-05T11:52:00.684Z,1018.54
2023-01-05T11:53:00.671Z,1018.65
2023-01-05T11:54:00.655Z,1018.52
2023-01-05T11:55:00.664Z,1018.54
2023-01-05T11:56:00.650Z,1018.57
2023-01-05T11:57:00.634Z,1018.58
2023-01-05T11:58:00.636Z,1018.54
2023-01-05T11:59:00.613Z,1018.57
2023-01-05T12:00:00.592Z,1018.64
2023-01-05T12:01:00.603Z,1018.66
2023-01-05T12:02:00.551Z,1018.68
2023-01-05T12:03:00.619Z,1018.75
2023-01-05T12:04:00.541Z,1018.69
2023-01-05T12:05:00.521Z,1018.64
2023-01-05T12:06:00.484Z,1018.65
2023-01-05T12:07:00.480Z,1018.64
2023-01-05T12:08:00.445Z,1018.65
2023-01-05T12:09:00.527Z,1018.63
2023-01-05T12:10:00.460Z,1018.64
2023-01-05T12:11:00.467Z,1018.63
2023-01-05T12:12:00.426Z,1018.61
2023-01-05T12:13:00.657Z,1018.60
2023-01-05T12:14:00.464Z,1018.51
2023-01-05T12:15:00.400Z,1018.55
2023-01-05T12:16:02.361Z,1018.59
2023-01-05T12:17:00.369Z,1018.53
2023-01-05T12:18:00.350Z,1018.53
2023-01-05T12:19:00.381Z,1018.53
2023-01-05T12:20:00.293Z,1018.61
2023-01-05T12:21:00.319Z,1018.56
2023-01-05T12:22:02.638Z,1018.49
2023-01-05T12:23:00.270Z,1018.46
2023-01-05T12:24:00.278Z,1018.51
2023-01-05T12:25:00.262Z,1018.53
2023-01-05T12:26:00.233Z,1018.52
2023-01-05T12:27:00.229Z,1018.51
2023-01-05T12:28:05.044Z,1018.54
2023-01-05T12:34:01.512Z,1018.51
2023-01-05T12:34:03.406Z,1018.50
2023-01-05T12:35:00.143Z,1018.55